Time;durP1;ratioP1;P1;durP2;ratioP2;P2;SDS_P1;SDS_P2;PMS_P1;PMS_P2;Temp;Humidity;BMP_temperature;BMP_pressure;BME280_temperature;BME280_humidity;BME280_pressure;Samples;Min_cycle;Max_cycle;Signal;HPM_P1;HPM_P2
2021/03/25 00:01:51;;;;;;;2.90;2.63;;;;;;;-1.92;100.00;96400.75;5115711;28;20199;-86
2021/03/25 00:04:18;;;;;;;2.80;2.60;;;;;;;-1.95;100.00;96400.91;5115577;28;20614;-86
2021/03/25 00:06:51;;;;;;;2.93;2.63;;;;;;;-2.03;100.00;96407.38;5115874;28;20187;-85
2021/03/25 00:09:20;;;;;;;3.03;2.70;;;;;;;-2.19;100.00;96415.88;5116077;28;20191;-86
2021/03/25 00:11:48;;;;;;;4.80;3.80;;;;;;;-2.20;100.00;96416.78;5115664;28;20274;-85
2021/03/25 00:14:15;;;;;;;8.20;5.43;;;;;;;-2.05;100.00;96420.31;5115805;28;20200;-86
2021/03/25 00:16:42;;;;;;;5.07;4.47;;;;;;;-2.03;100.00;96420.25;5115562;28;20219;-85
2021/03/25 00:19:09;;;;;;;3.97;3.40;;;;;;;-2.09;100.00;96423.13;5115486;28;20286;-86
2021/03/25 00:21:37;;;;;;;4.60;3.50;;;;;;;-2.09;100.00;96425.72;5115939;28;20247;-86
2021/03/25 00:24:08;;;;;;;3.13;2.87;;;;;;;-1.96;100.00;96416.47;5115292;28;20203;-86
2021/03/25 00:26:35;;;;;;;2.57;2.37;;;;;;;-2.06;100.00;96399.81;5115431;28;20184;-86
2021/03/25 00:29:02;;;;;;;3.40;3.10;;;;;;;-2.12;100.00;96380.34;5115408;28;20195;-86
2021/03/25 00:31:29;;;;;;;3.60;2.60;;;;;;;-2.00;100.00;96342.84;5115423;28;20716;-87
2021/03/25 00:33:56;;;;;;;3.00;2.80;;;;;;;-2.09;100.00;96305.50;5115654;28;20241;-86
2021/03/25 00:36:23;;;;;;;3.40;3.10;;;;;;;-2.24;100.00;96265.13;5115476;28;20604;-86
2021/03/25 00:38:50;;;;;;;3.13;2.90;;;;;;;-2.22;100.00;96212.66;5115533;28;20195;-86
2021/03/25 00:41:18;;;;;;;2.93;2.73;;;;;;;-2.30;100.00;96168.44;5115440;28;20723;-86
2021/03/25 00:43:45;;;;;;;3.43;3.13;;;;;;;-2.29;100.00;96113.47;5115326;28;20200;-86
2021/03/25 00:46:12;;;;;;;3.80;3.50;;;;;;;-2.24;100.00;96061.75;5115011;28;20242;-86
2021/03/25 00:48:39;;;;;;;3.30;3.00;;;;;;;-2.06;100.00;96000.66;5115307;28;20195;-86
2021/03/25 00:51:06;;;;;;;4.23;2.67;;;;;;;-2.09;100.00;95955.28;5115249;28;20687;-86
2021/03/25 00:53:35;;;;;;;5.00;4.17;;;;;;;-1.81;100.00;95899.56;5114825;28;20202;-86
2021/03/25 00:56:04;;;;;;;2.90;2.70;;;;;;;-1.84;100.00;95859.34;5114854;28;20202;-86
2021/03/25 00:58:31;;;;;;;3.40;3.10;;;;;;;-1.89;100.00;95869.13;5114769;28;20280;-86
2021/03/25 01:00:59;;;;;;;3.60;3.30;;;;;;;-1.82;100.00;95860.09;5114820;28;20202;-86
2021/03/25 01:03:27;;;;;;;2.93;2.73;;;;;;;-1.83;100.00;95853.31;5114111;28;20195;-85
2021/03/25 01:05:54;;;;;;;2.77;2.57;;;;;;;-1.86;100.00;95844.94;5114492;28;20184;-86
2021/03/25 01:08:21;;;;;;;3.13;2.80;;;;;;;-1.92;100.00;95846.94;5114924;28;20203;-86
2021/03/25 01:10:52;;;;;;;2.53;2.33;;;;;;;-1.86;100.00;95844.94;5114645;28;20286;-86
2021/03/25 01:13:30;;;;;;;5.60;3.03;;;;;;;-1.79;100.00;95841.88;5114180;28;20219;-86
2021/03/25 01:15:59;;;;;;;2.70;2.50;;;;;;;-1.92;100.00;95849.53;5115081;27;20244;-86
2021/03/25 01:18:27;;;;;;;3.20;2.70;;;;;;;-1.96;100.00;95858.38;5114212;28;20265;-86
2021/03/25 01:20:54;;;;;;;2.80;2.57;;;;;;;-2.00;100.00;95859.47;5114473;28;20223;-86
2021/03/25 01:23:22;;;;;;;3.80;3.33;;;;;;;-2.07;100.00;95862.50;5114187;28;20282;-86
2021/03/25 01:25:49;;;;;;;2.50;2.30;;;;;;;-2.03;100.00;95862.22;5114609;28;20202;-86
2021/03/25 01:28:17;;;;;;;3.50;2.90;;;;;;;-2.04;100.00;95870.88;5114143;28;20683;-86
2021/03/25 01:30:45;;;;;;;3.43;3.13;;;;;;;-2.07;100.00;95877.97;5114573;28;20209;-86
2021/03/25 01:33:16;;;;;;;4.87;2.70;;;;;;;-2.09;100.00;95890.09;5114304;28;20207;-86
2021/03/25 01:35:43;;;;;;;2.97;2.77;;;;;;;-2.20;100.00;95904.41;5114244;28;20245;-86
2021/03/25 01:38:11;;;;;;;2.80;2.60;;;;;;;-2.13;100.00;95899.75;5114208;28;20222;-86
2021/03/25 01:40:41;;;;;;;4.13;2.40;;;;;;;-2.14;100.00;95897.28;5114158;28;20274;-87
2021/03/25 01:43:21;;;;;;;2.50;2.30;;;;;;;-2.10;100.00;95904.72;5113661;28;20195;-86
2021/03/25 01:45:52;;;;;;;3.07;2.87;;;;;;;-2.02;100.00;95912.81;5114356;28;20241;-85
2021/03/25 01:48:22;;;;;;;3.57;2.97;;;;;;;-2.09;100.00;95932.13;5113809;28;20180;-86
2021/03/25 01:50:50;;;;;;;2.93;2.67;;;;;;;-1.93;100.00;95943.19;5113901;28;20191;-86
2021/03/25 01:53:30;;;;;;;3.90;2.53;;;;;;;-1.89;100.00;95948.97;5113726;28;20234;-86
2021/03/25 01:56:06;;;;;;;2.93;2.60;;;;;;;-2.04;100.00;95960.19;5113727;28;20219;-86
2021/03/25 01:58:54;;;;;;;2.83;2.63;;;;;;;-2.01;100.00;95986.59;5114007;28;20246;-86
2021/03/25 02:01:31;;;;;;;2.80;2.60;;;;;;;-1.97;100.00;96011.25;5113412;28;20267;-86
2021/03/25 02:04:21;;;;;;;3.70;2.67;;;;;;;-1.83;100.00;96040.53;5113723;28;20234;-87
2021/03/25 02:06:57;;;;;;;2.20;2.00;;;;;;;-1.73;100.00;96082.88;5113453;28;20663;-86
2021/03/25 02:09:47;;;;;;;2.60;2.40;;;;;;;-1.78;100.00;96126.09;5113660;28;20640;-86
2021/03/25 02:12:24;;;;;;;5.03;2.87;;;;;;;-1.65;100.00;96139.13;5113491;28;20199;-86
2021/03/25 02:15:01;;;;;;;2.90;2.70;;;;;;;-1.82;100.00;96186.47;5113482;28;20182;-86
2021/03/25 02:17:34;;;;;;;2.93;2.63;;;;;;;-1.64;100.00;96208.63;5112718;28;20298;-85
2021/03/25 02:20:33;;;;;;;2.93;2.57;;;;;;;-1.69;100.00;96232.06;5113147;28;20275;-86
2021/03/25 02:23:20;;;;;;;5.67;2.63;;;;;;;-1.84;100.00;96260.41;5110706;28;20205;-86
2021/03/25 02:25:51;;;;;;;3.07;2.77;;;;;;;-1.69;100.00;96282.78;5113488;28;20243;-86
2021/03/25 02:28:31;;;;;;;2.47;2.27;;;;;;;-1.81;100.00;96307.44;5113361;28;20179;-86
2021/03/25 02:31:10;;;;;;;2.63;2.43;;;;;;;-1.94;100.00;96329.63;5113361;28;20183;-86
2021/03/25 02:33:39;;;;;;;3.60;2.90;;;;;;;-1.91;100.00;96350.06;5113116;28;20234;-86
2021/03/25 02:36:10;;;;;;;2.97;2.77;;;;;;;-1.81;100.00;96368.44;5113397;28;20275;-86
2021/03/25 02:38:42;;;;;;;2.90;2.70;;;;;;;-1.78;100.00;96394.06;5113031;28;20200;-86
2021/03/25 02:41:16;;;;;;;3.43;3.13;;;;;;;-1.74;100.00;96406.69;5112864;28;20781;-86
2021/03/25 02:43:47;;;;;;;3.90;3.50;;;;;;;-1.67;100.00;96430.41;5113503;28;20311;-86
2021/03/25 02:46:20;;;;;;;2.57;2.37;;;;;;;-1.68;100.00;96447.59;5113165;28;20182;-86
2021/03/25 02:48:50;;;;;;;3.07;2.77;;;;;;;-1.79;100.00;96470.53;5112772;28;20271;-86
2021/03/25 02:51:19;;;;;;;3.10;2.87;;;;;;;-1.68;100.00;96498.31;5113480;28;20583;-86
2021/03/25 02:53:47;;;;;;;4.00;3.50;;;;;;;-1.75;100.00;96512.44;5112822;28;20195;-86
2021/03/25 02:56:20;;;;;;;2.97;2.77;;;;;;;-1.61;100.00;96525.44;5112913;28;20248;-86
2021/03/25 02:58:50;;;;;;;2.93;2.63;;;;;;;-1.67;100.00;96547.19;5112864;28;20256;-86
2021/03/25 03:01:19;;;;;;;3.43;3.13;;;;;;;-1.75;100.00;96554.50;5109010;28;20192;-82
2021/03/25 03:03:51;;;;;;;3.47;3.17;;;;;;;-1.60;100.00;96572.66;5099865;28;20240;-85
2021/03/25 03:06:26;;;;;;;4.07;3.73;;;;;;;-1.70;100.00;96583.47;5091968;28;20641;-82
2021/03/25 03:08:55;;;;;;;3.63;3.33;;;;;;;-1.77;100.00;96589.78;5091792;28;20241;-83
2021/03/25 03:11:27;;;;;;;3.53;3.23;;;;;;;-1.82;100.00;96596.09;5091562;28;20260;-83
2021/03/25 03:13:59;;;;;;;3.50;3.17;;;;;;;-1.66;100.00;96581.56;5091900;28;20181;-83
2021/03/25 03:16:30;;;;;;;3.27;3.03;;;;;;;-1.76;100.00;96568.28;5091987;28;20220;-83
2021/03/25 03:19:03;;;;;;;3.37;3.07;;;;;;;-1.77;100.00;96566.59;5091467;28;20299;-83
2021/03/25 03:21:33;;;;;;;3.73;3.43;;;;;;;-1.83;100.00;96572.09;5091448;28;20325;-83
2021/03/25 03:24:00;;;;;;;4.63;3.00;;;;;;;-1.97;100.00;96570.19;5091508;28;20275;-82
2021/03/25 03:26:32;;;;;;;3.27;2.90;;;;;;;-1.87;100.00;96557.69;5091579;28;20665;-82
2021/03/25 03:29:04;;;;;;;3.43;3.13;;;;;;;-1.88;100.00;96539.72;5095540;28;20195;-82
2021/03/25 03:31:39;;;;;;;3.47;3.17;;;;;;;-1.74;100.00;96521.81;5094869;28;20188;-82
2021/03/25 03:34:11;;;;;;;4.03;3.63;;;;;;;-1.82;100.00;96511.06;5114068;28;20199;-82
2021/03/25 03:36:40;;;;;;;3.90;3.50;;;;;;;-1.71;100.00;96493.31;5115448;28;20443;-84
2021/03/25 03:39:10;;;;;;;4.07;3.63;;;;;;;-1.77;100.00;96476.41;5116003;28;20195;-84
2021/03/25 03:41:44;;;;;;;3.53;3.23;;;;;;;-1.84;100.00;96462.19;5116039;28;20555;-83
2021/03/25 03:44:17;;;;;;;5.33;4.60;;;;;;;-1.84;100.00;96440.75;5115935;28;20187;-84
2021/03/25 03:46:47;;;;;;;5.13;4.20;;;;;;;-1.75;100.00;96420.50;5116246;27;20564;-84
2021/03/25 03:49:18;;;;;;;3.97;3.57;;;;;;;-1.63;100.00;96402.72;5116041;28;20187;-84
2021/03/25 03:51:48;;;;;;;5.57;3.97;;;;;;;-1.80;100.00;96390.72;5115779;28;20187;-83
2021/03/25 03:54:16;;;;;;;4.40;4.00;;;;;;;-1.63;100.00;96384.69;5116057;28;20207;-84
2021/03/25 03:56:55;;;;;;;4.00;3.60;;;;;;;-1.85;100.00;96370.34;5115539;28;20235;-83
2021/03/25 03:59:29;;;;;;;4.30;3.90;;;;;;;-1.98;100.00;96377.06;5115884;28;20555;-83
2021/03/25 04:02:08;;;;;;;4.30;3.90;;;;;;;-1.81;100.00;96356.41;5115872;28;20195;-84
2021/03/25 04:04:40;;;;;;;4.67;4.23;;;;;;;-1.78;100.00;96334.81;5115327;28;20760;-84
2021/03/25 04:07:18;;;;;;;4.40;4.00;;;;;;;-1.82;100.00;96307.53;5115420;28;20204;-84
2021/03/25 04:09:51;;;;;;;4.33;4.00;;;;;;;-1.82;100.00;96284.34;5115472;28;20230;-84
2021/03/25 04:12:23;;;;;;;4.53;4.10;;;;;;;-1.85;100.00;96267.31;5115652;28;20253;-84
2021/03/25 04:14:54;;;;;;;4.83;4.00;;;;;;;-1.92;100.00;96261.66;5115847;28;20289;-84
2021/03/25 04:17:28;;;;;;;4.10;3.80;;;;;;;-1.90;100.00;96238.41;5115745;27;20618;-84
2021/03/25 04:19:59;;;;;;;4.50;4.10;;;;;;;-1.76;100.00;96217.03;5114011;28;20190;-84
2021/03/25 04:22:29;;;;;;;5.33;4.50;;;;;;;-1.69;100.00;96200.31;5113372;28;20208;-84
2021/03/25 04:25:02;;;;;;;4.83;4.17;;;;;;;-1.86;100.00;96185.78;5115144;28;20199;-84
2021/03/25 04:27:34;;;;;;;4.80;4.40;;;;;;;-1.93;100.00;96189.63;5115344;27;20291;-84
2021/03/25 04:30:08;;;;;;;4.90;3.83;;;;;;;-1.73;100.00;96171.31;5114396;28;20176;-84
2021/03/25 04:32:37;;;;;;;4.63;4.20;;;;;;;-1.80;100.00;96169.16;5114213;28;20191;-84
2021/03/25 04:35:06;;;;;;;8.33;6.70;;;;;;;-1.75;100.00;96151.69;5114455;28;20198;-85
2021/03/25 04:37:34;;;;;;;29.33;18.40;;;;;;;-1.80;100.00;96153.69;5114232;28;20276;-84
2021/03/25 04:40:03;;;;;;;27.07;17.10;;;;;;;-1.75;100.00;96149.94;5113312;28;20274;-84
2021/03/25 04:42:29;;;;;;;18.47;11.83;;;;;;;-1.71;100.00;96130.81;5113922;28;20290;-85
2021/03/25 04:45:06;;;;;;;7.13;6.43;;;;;;;-1.59;100.00;96108.69;5114582;28;20195;-85
2021/03/25 04:47:40;;;;;;;7.90;5.73;;;;;;;-1.71;100.00;96127.41;5113729;28;20183;-84
2021/03/25 04:50:14;;;;;;;12.90;7.53;;;;;;;-1.86;100.00;96126.53;5114401;28;20262;-84
2021/03/25 04:52:41;;;;;;;8.73;5.93;;;;;;;-1.68;100.00;96122.91;5113731;27;20230;-85
2021/03/25 04:55:18;;;;;;;8.87;4.50;;;;;;;-1.50;100.00;96109.91;5114427;28;20554;-85
2021/03/25 04:57:52;;;;;;;5.10;4.50;;;;;;;-1.47;100.00;96105.38;5114098;28;20675;-86
2021/03/25 05:00:26;;;;;;;5.13;4.63;;;;;;;-1.54;100.00;96126.47;5113737;28;20227;-88
2021/03/25 05:02:56;;;;;;;5.43;4.87;;;;;;;-1.46;100.00;96134.56;5114172;28;20176;-84
2021/03/25 05:05:26;;;;;;;5.93;5.33;;;;;;;-1.36;100.00;96130.53;5113854;28;20237;-86
2021/03/25 05:07:58;;;;;;;5.40;4.90;;;;;;;-1.36;100.00;96143.44;5113990;28;20184;-86
2021/03/25 05:10:31;;;;;;;7.27;5.73;;;;;;;-1.21;100.00;96147.72;5113970;28;20175;-85
2021/03/25 05:12:58;;;;;;;7.50;6.70;;;;;;;-1.22;100.00;96152.94;5113711;28;20708;-86
2021/03/25 05:15:29;;;;;;;7.73;5.97;;;;;;;-1.33;100.00;96173.38;5113594;28;20211;-85
2021/03/25 05:18:10;;;;;;;6.53;5.90;;;;;;;-1.42;100.00;96182.47;5114487;28;20689;-86
2021/03/25 05:20:41;;;;;;;6.13;5.53;;;;;;;-1.15;100.00;96166.31;5114127;28;20274;-86
2021/03/25 05:23:16;;;;;;;6.73;6.07;;;;;;;-1.15;100.00;97120.66;5114438;28;20648;-85
2021/03/25 05:25:49;;;;;;;7.67;5.77;;;;;;;-1.34;100.00;97216.03;5114799;28;20266;-86
2021/03/25 05:28:22;;;;;;;5.73;4.67;;;;;;;-1.24;100.00;97284.41;5115026;28;20184;-86
2021/03/25 05:30:52;;;;;;;6.00;5.40;;;;;;;-1.15;100.00;97332.19;5114420;28;20192;-86
2021/03/25 05:33:24;;;;;;;5.83;4.60;;;;;;;-1.11;100.00;97362.13;5114421;28;20194;-85
2021/03/25 05:35:56;;;;;;;5.13;4.57;;;;;;;-1.11;100.00;97391.38;5114536;28;20183;-86
2021/03/25 05:38:24;;;;;;;6.17;5.57;;;;;;;-1.07;100.00;97411.00;5113243;28;20237;-86
2021/03/25 05:40:54;;;;;;;6.03;4.70;;;;;;;-0.95;100.00;97430.31;5114450;28;20207;-86
2021/03/25 05:44:07;;;;;;;6.17;3.80;;;;;;;-1.08;100.00;97442.00;5113884;28;20261;-85
2021/03/25 05:46:45;;;;;;;6.40;4.00;;;;;;;-0.97;100.00;97455.31;5113729;28;20275;-86
2021/03/25 05:49:25;;;;;;;4.30;3.90;;;;;;;-0.96;100.00;97464.78;5113798;28;20191;-86
2021/03/25 05:52:02;;;;;;;5.17;4.70;;;;;;;-1.06;100.00;97472.00;5113788;28;20324;-86
2021/03/25 05:54:54;;;;;;;6.00;5.40;;;;;;;-0.92;100.00;97488.72;5113773;28;20270;-86
2021/03/25 05:57:35;;;;;;;7.67;6.60;;;;;;;-0.89;100.00;97497.19;5113618;28;20249;-86
2021/03/25 06:00:14;;;;;;;6.10;5.03;;;;;;;-1.04;100.00;97501.19;5113529;28;20328;-86
2021/03/25 06:02:49;;;;;;;5.23;4.73;;;;;;;-1.06;100.00;97510.72;5113715;28;20186;-86
2021/03/25 06:05:18;;;;;;;5.17;4.00;;;;;;;-0.88;100.00;97516.94;5113412;28;20227;-86
2021/03/25 06:08:14;;;;;;;5.87;4.23;;;;;;;-0.96;100.00;97524.97;5113495;28;20199;-86
2021/03/25 06:11:04;;;;;;;4.80;4.30;;;;;;;-0.75;100.00;97532.81;5113970;28;20179;-86
2021/03/25 06:13:55;;;;;;;4.00;3.60;;;;;;;-0.76;100.00;97531.97;5113540;28;20279;-86
2021/03/25 06:16:49;;;;;;;4.60;4.20;;;;;;;-0.64;100.00;97540.13;5111075;28;20199;-85
2021/03/25 06:19:36;;;;;;;5.03;4.53;;;;;;;-0.68;100.00;97548.91;5113308;28;20255;-86
2021/03/25 06:22:15;;;;;;;15.87;12.40;;;;;;;-0.50;100.00;97550.78;5112975;28;20275;-84
2021/03/25 06:25:21;;;;;;;10.17;8.13;;;;;;;-0.65;100.00;97551.38;5113074;28;20254;-86
2021/03/25 06:28:27;;;;;;;143.33;57.77;;;;;;;-0.37;100.00;97556.31;5113246;28;20372;-85
2021/03/25 06:31:21;;;;;;;63.37;36.77;;;;;;;-0.60;100.00;97552.03;5112882;28;20274;-83
2021/03/25 06:33:55;;;;;;;9.40;8.43;;;;;;;-0.57;100.00;97557.06;5110771;28;20661;-83
2021/03/25 06:36:40;;;;;;;6.00;5.20;;;;;;;-0.63;100.00;97552.97;5113519;28;20611;-83
2021/03/25 06:39:19;;;;;;;5.23;4.43;;;;;;;-0.61;100.00;97561.50;5112840;28;20204;-83
2021/03/25 06:41:52;;;;;;;7.47;6.10;;;;;;;-0.56;100.00;97569.06;5112724;28;20226;-86
2021/03/25 06:44:26;;;;;;;6.00;5.50;;;;;;;-0.46;100.00;97579.91;5112869;28;20187;-86
2021/03/25 06:47:11;;;;;;;7.33;6.40;;;;;;;-0.20;100.00;97578.91;5112941;28;20187;-86
2021/03/25 06:49:44;;;;;;;6.53;4.70;;;;;;;-0.18;100.00;97588.25;5112668;28;20648;-86
2021/03/25 06:52:21;;;;;;;10.30;6.93;;;;;;;-0.27;100.00;97584.31;5112879;28;20270;-86
2021/03/25 06:54:49;;;;;;;8.40;6.60;;;;;;;-0.27;100.00;97581.72;5112525;28;20190;-85
2021/03/25 06:57:19;;;;;;;6.67;5.37;;;;;;;-0.13;100.00;97578.59;5112423;28;20195;-85
2021/03/25 06:59:47;;;;;;;6.37;5.10;;;;;;;-0.25;100.00;97577.31;5112611;28;20183;-85
2021/03/25 07:02:20;;;;;;;4.70;4.30;;;;;;;-0.17;100.00;97561.53;5111920;28;20270;-85
2021/03/25 07:04:50;;;;;;;6.53;5.70;;;;;;;0.03;100.00;97567.63;5112389;28;20722;-85
2021/03/25 07:07:21;;;;;;;4.23;3.83;;;;;;;-0.08;100.00;97558.56;5112323;28;20190;-84
2021/03/25 07:09:50;;;;;;;5.57;4.97;;;;;;;0.05;100.00;97558.94;5112804;28;20179;-84
2021/03/25 07:12:20;;;;;;;3.67;3.37;;;;;;;-0.09;100.00;97545.72;5112341;28;20191;-84
2021/03/25 07:14:49;;;;;;;6.23;5.43;;;;;;;0.30;100.00;97542.41;5112526;28;20274;-84
2021/03/25 07:17:18;;;;;;;7.90;5.07;;;;;;;0.52;100.00;97534.56;5112079;28;20199;-84
2021/03/25 07:19:47;;;;;;;4.87;3.23;;;;;;;0.79;100.00;97514.41;5111418;28;20310;-84
2021/03/25 07:22:20;;;;;;;4.40;3.73;;;;;;;1.07;100.00;97486.38;5111176;28;20203;-81
2021/03/25 07:24:49;;;;;;;6.17;4.70;;;;;;;1.08;100.00;97444.06;5112371;28;20183;-82
2021/03/25 07:27:19;;;;;;;7.97;6.23;;;;;;;1.28;100.00;97416.38;5112293;28;20230;-82
2021/03/25 07:29:59;;;;;;;3.87;3.53;;;;;;;1.57;100.00;97381.28;5112643;28;20580;-82
2021/03/25 07:32:36;;;;;;;6.70;5.60;;;;;;;1.94;100.00;97356.94;5112466;28;20180;-83
2021/03/25 07:35:24;;;;;;;5.47;4.70;;;;;;;1.85;100.00;97321.13;5112239;28;20187;-82
2021/03/25 07:37:52;;;;;;;7.33;6.00;;;;;;;2.09;100.00;97295.66;5112399;28;20586;-82
2021/03/25 07:40:28;;;;;;;7.10;6.40;;;;;;;1.99;100.00;97263.38;5112242;28;20244;-83
2021/03/25 07:42:56;;;;;;;5.70;4.50;;;;;;;1.76;100.00;97236.06;5111933;28;20267;-82
2021/03/25 07:45:28;;;;;;;5.73;5.20;;;;;;;1.52;100.00;97207.06;5112189;28;20191;-82
2021/03/25 07:48:12;;;;;;;6.63;5.07;;;;;;;1.34;100.00;97191.56;5112290;28;20180;-82
2021/03/25 07:50:40;;;;;;;5.50;4.87;;;;;;;1.30;100.00;97178.88;5111975;28;20187;-82
2021/03/25 07:53:24;;;;;;;7.03;6.10;;;;;;;1.26;100.00;97165.25;5111970;28;20199;-82
2021/03/25 07:56:06;;;;;;;5.53;4.83;;;;;;;1.40;100.00;97148.97;5112104;28;20278;-82
2021/03/25 07:58:39;;;;;;;6.27;5.07;;;;;;;1.64;100.00;97142.50;5111713;28;20679;-82
2021/03/25 08:01:13;;;;;;;5.73;4.30;;;;;;;1.79;100.00;97132.22;5112027;28;20617;-82
2021/03/25 08:03:48;;;;;;;6.70;6.10;;;;;;;1.63;100.00;97127.88;5111678;28;20322;-82
2021/03/25 08:06:22;;;;;;;6.00;5.40;;;;;;;1.75;100.00;97110.81;5111892;28;20176;-81
2021/03/25 08:09:04;;;;;;;5.50;5.00;;;;;;;2.03;100.00;97099.75;5111834;28;20230;-82
2021/03/25 08:11:33;;;;;;;5.70;5.00;;;;;;;2.85;100.00;97088.16;5111768;28;20219;-84
2021/03/25 08:14:13;;;;;;;5.93;4.90;;;;;;;3.37;100.00;97085.00;5112674;28;20705;-82
2021/03/25 08:16:44;;;;;;;5.23;4.73;;;;;;;3.83;100.00;97069.13;5115720;28;20184;-85
2021/03/25 08:19:28;;;;;;;9.10;8.13;;;;;;;3.75;100.00;97059.22;5115589;28;20203;-84
2021/03/25 08:22:43;;;;;;;6.87;5.80;;;;;;;3.63;100.00;97048.75;5115354;28;20191;-83
2021/03/25 08:25:27;;;;;;;6.20;5.63;;;;;;;3.98;100.00;97044.75;5105012;28;20249;-82
2021/03/25 08:28:09;;;;;;;6.30;5.73;;;;;;;3.91;100.00;97035.66;5115361;28;20180;-84
2021/03/25 08:31:14;;;;;;;6.67;5.50;;;;;;;3.61;100.00;97037.63;5115372;28;20215;-83
2021/03/25 08:34:08;;;;;;;7.03;5.87;;;;;;;3.39;100.00;97044.16;5096466;28;20192;-83
2021/03/25 08:36:47;;;;;;;5.23;4.73;;;;;;;3.01;100.00;97046.50;5115193;28;20190;-82
2021/03/25 08:39:43;;;;;;;5.20;4.70;;;;;;;3.88;100.00;97035.88;5115201;28;20320;-82
2021/03/25 08:42:20;;;;;;;6.57;5.87;;;;;;;4.37;100.00;97047.47;5113775;28;20207;-82
2021/03/25 08:44:55;;;;;;;5.93;5.30;;;;;;;4.86;100.00;97052.81;5114960;28;20210;-82
2021/03/25 08:47:30;;;;;;;6.57;5.87;;;;;;;5.13;100.00;97057.91;5114986;28;20272;-83
2021/03/25 08:50:05;;;;;;;5.10;4.60;;;;;;;5.57;100.00;97060.97;5115055;28;20183;-83
2021/03/25 08:52:37;;;;;;;4.53;4.07;;;;;;;5.67;100.00;97062.81;5114536;28;20187;-83
2021/03/25 08:55:23;;;;;;;4.33;3.93;;;;;;;5.77;100.00;97076.03;5115155;28;20191;-83
2021/03/25 08:57:54;;;;;;;4.33;3.93;;;;;;;5.87;100.00;97071.84;5114594;28;20294;-83
2021/03/25 09:00:28;;;;;;;4.90;4.40;;;;;;;5.60;100.00;97072.00;5115022;28;20678;-84
2021/03/25 09:03:01;;;;;;;4.83;4.43;;;;;;;5.90;100.00;97065.56;5114509;28;20543;-83
2021/03/25 09:05:30;;;;;;;6.10;4.70;;;;;;;5.66;100.00;97066.38;5114870;28;20227;-83
2021/03/25 09:08:00;;;;;;;5.00;4.50;;;;;;;5.38;100.00;97072.69;5114514;28;20244;-83
2021/03/25 09:10:40;;;;;;;5.30;4.80;;;;;;;4.67;100.00;97075.81;5114860;28;20252;-83
2021/03/25 09:13:11;;;;;;;5.00;4.50;;;;;;;4.25;100.00;97075.09;5114728;28;20248;-83
2021/03/25 09:15:42;;;;;;;4.70;4.30;;;;;;;4.75;100.00;97065.75;5114292;28;20275;-83
2021/03/25 09:18:13;;;;;;;5.13;4.63;;;;;;;4.11;100.00;97080.38;5114473;28;20226;-83
2021/03/25 09:20:45;;;;;;;5.53;5.03;;;;;;;5.23;100.00;97065.94;5114443;28;20183;-83
2021/03/25 09:23:38;;;;;;;5.03;4.53;;;;;;;5.86;100.00;97059.75;5114305;28;20275;-83
2021/03/25 09:26:54;;;;;;;5.53;5.00;;;;;;;6.03;100.00;97057.72;5113747;28;20245;-83
2021/03/25 09:29:24;;;;;;;4.37;3.97;;;;;;;5.12;100.00;97063.22;5066364;28;20191;-83
2021/03/25 09:32:31;;;;;;;5.47;4.90;;;;;;;4.77;100.00;97069.88;5114429;28;20675;-84
2021/03/25 09:35:00;;;;;;;4.97;4.57;;;;;;;4.63;100.00;97071.75;5114186;28;20188;-83
2021/03/25 09:37:29;;;;;;;5.37;4.90;;;;;;;5.40;100.00;97073.44;5113679;28;20196;-84
2021/03/25 09:40:12;;;;;;;6.00;5.40;;;;;;;5.29;100.00;97065.50;5114133;28;20237;-84
2021/03/25 09:42:41;;;;;;;5.00;4.57;;;;;;;4.48;100.00;97074.44;5113852;28;20648;-83
2021/03/25 09:45:31;;;;;;;4.47;4.07;;;;;;;4.76;100.00;97070.00;5113847;28;20667;-84
2021/03/25 09:48:01;;;;;;;4.20;3.90;;;;;;;4.96;100.00;97061.69;5113838;28;20192;-84
2021/03/25 09:50:31;;;;;;;5.80;5.20;;;;;;;4.17;100.00;97075.59;5113848;28;20206;-83
2021/03/25 09:53:18;;;;;;;5.70;5.20;;;;;;;4.05;100.00;97077.25;5113569;28;20196;-83
2021/03/25 09:56:04;;;;;;;5.13;4.63;;;;;;;4.98;100.00;97062.38;5108775;27;20195;-83
2021/03/25 09:58:44;;;;;;;5.50;4.57;;;;;;;5.14;100.00;97067.41;5113467;28;20241;-83
2021/03/25 10:01:30;;;;;;;5.90;5.30;;;;;;;6.03;100.00;97057.72;5113556;27;20230;-83
2021/03/25 10:03:59;;;;;;;5.13;4.63;;;;;;;6.04;100.00;97060.22;5113055;28;20321;-83
2021/03/25 10:07:14;;;;;;;4.60;4.20;;;;;;;6.51;100.00;97066.34;5113142;28;20690;-83
2021/03/25 10:09:57;;;;;;;4.33;3.93;;;;;;;6.13;100.00;97066.53;5038981;28;20255;-83
2021/03/25 10:12:46;;;;;;;4.27;3.87;;;;;;;5.26;100.00;97073.53;5050821;28;20692;-83
2021/03/25 10:15:49;;;;;;;4.87;4.30;;;;;;;5.82;100.00;97060.91;5050877;28;20271;-83
2021/03/25 10:18:59;;;;;;;7.40;5.93;;;;;;;6.78;100.00;97052.16;5050433;28;20296;-83
2021/03/25 10:21:54;;;;;;;7.37;5.90;;;;;;;6.88;100.00;97051.34;5050450;28;20204;-83
2021/03/25 10:24:24;;;;;;;5.47;4.80;;;;;;;7.06;100.00;97050.88;5037968;28;20201;-83
2021/03/25 10:27:02;;;;;;;5.37;4.97;;;;;;;6.02;100.00;97074.31;5050178;28;20213;-83
2021/03/25 10:29:32;;;;;;;6.20;5.57;;;;;;;5.40;100.00;97083.84;5050433;28;20690;-83
2021/03/25 10:32:01;;;;;;;4.73;4.33;;;;;;;4.98;100.00;97080.63;5050440;28;20209;-83
2021/03/25 10:34:32;;;;;;;5.67;5.17;;;;;;;4.81;100.00;97083.53;5050478;28;20247;-83
2021/03/25 10:37:04;;;;;;;7.33;6.53;;;;;;;4.69;100.00;97080.00;5049539;28;20698;-83
2021/03/25 10:39:35;;;;;;;5.40;4.90;;;;;;;4.66;100.00;97085.41;5062670;28;20586;-83
2021/03/25 10:42:14;;;;;;;6.53;5.93;;;;;;;4.57;100.00;97091.19;5112653;28;20183;-83
2021/03/25 10:44:41;;;;;;;7.90;6.93;;;;;;;4.73;100.00;97093.63;5113090;28;20191;-85
2021/03/25 10:47:16;;;;;;;6.20;5.20;;;;;;;4.61;100.00;97082.28;5112665;28;20551;-85
2021/03/25 10:49:46;;;;;;;6.40;5.23;;;;;;;4.75;100.00;97089.19;5113189;28;20180;-83
2021/03/25 10:52:19;;;;;;;4.80;4.40;;;;;;;4.71;100.00;97093.75;5113037;28;20227;-84
2021/03/25 10:54:48;;;;;;;5.87;5.00;;;;;;;4.85;100.00;97089.38;5112675;28;20194;-84
2021/03/25 10:57:23;;;;;;;5.20;4.50;;;;;;;4.44;100.00;97093.81;5112442;28;20192;-83
2021/03/25 10:59:55;;;;;;;5.23;4.70;;;;;;;5.29;100.00;97078.53;5112988;28;20542;-83
2021/03/25 11:02:26;;;;;;;5.70;4.90;;;;;;;6.05;100.00;97071.47;5112748;28;20215;-83
2021/03/25 11:05:06;;;;;;;4.83;4.20;;;;;;;6.26;100.00;97066.47;5112101;28;20233;-83
2021/03/25 11:07:41;;;;;;;6.50;4.50;;;;;;;6.41;100.00;97071.41;5112692;28;20275;-84
2021/03/25 11:10:21;;;;;;;4.53;4.13;;;;;;;6.58;100.00;97059.72;5112485;28;20180;-83
2021/03/25 11:12:57;;;;;;;4.37;3.97;;;;;;;6.60;100.00;97054.38;5112435;28;20194;-83
2021/03/25 11:15:33;;;;;;;24.60;14.90;;;;;;;6.87;100.00;97054.09;5112069;28;20183;-84
2021/03/25 11:18:10;;;;;;;8.60;7.53;;;;;;;6.60;100.00;97054.38;5112292;28;20220;-83
2021/03/25 11:20:38;;;;;;;8.13;5.63;;;;;;;6.79;100.00;97046.84;5112525;28;20176;-83
2021/03/25 11:23:05;;;;;;;4.83;4.40;;;;;;;6.91;100.00;97037.22;5112392;28;20227;-83
2021/03/25 11:25:35;;;;;;;4.97;4.47;;;;;;;6.47;100.00;97040.56;5112296;28;20191;-83
2021/03/25 11:28:07;;;;;;;5.77;5.27;;;;;;;6.19;100.00;97045.22;5112479;28;20195;-83
2021/03/25 11:30:38;;;;;;;6.67;5.03;;;;;;;6.36;100.00;97052.63;5112297;28;20244;-83
2021/03/25 11:33:33;;;;;;;4.83;4.43;;;;;;;6.62;100.00;97048.09;5112140;28;20180;-83
2021/03/25 11:36:01;;;;;;;4.40;4.00;;;;;;;6.35;100.00;97050.16;5112202;28;20282;-83
2021/03/25 11:38:32;;;;;;;6.13;5.53;;;;;;;6.34;100.00;97040.63;5111993;28;20222;-83
2021/03/25 11:41:00;;;;;;;6.10;5.30;;;;;;;6.61;100.00;97043.81;5112402;28;20179;-83
2021/03/25 11:43:43;;;;;;;6.10;5.47;;;;;;;7.12;100.00;97046.03;5111985;28;20248;-82
2021/03/25 11:46:10;;;;;;;4.47;4.07;;;;;;;6.36;100.00;97042.19;5112206;28;20247;-83
2021/03/25 11:48:38;;;;;;;5.10;4.33;;;;;;;6.56;100.00;97052.94;5113703;28;20671;-83
2021/03/25 11:51:23;;;;;;;4.37;4.00;;;;;;;6.26;100.00;97046.41;5116115;28;20235;-83
2021/03/25 11:53:51;;;;;;;4.27;3.87;;;;;;;6.43;100.00;97059.06;5115783;28;20730;-83
2021/03/25 11:56:25;;;;;;;4.63;3.80;;;;;;;6.13;100.00;97054.34;5115927;28;20286;-83
2021/03/25 11:58:59;;;;;;;3.63;3.40;;;;;;;5.71;100.00;97059.06;5115860;28;20258;-83
2021/03/25 12:01:29;;;;;;;3.50;3.30;;;;;;;5.49;100.00;97071.94;5115998;28;20195;-83
2021/03/25 12:03:59;;;;;;;4.60;4.20;;;;;;;5.20;100.00;97076.56;5115546;28;20224;-82
2021/03/25 12:06:28;;;;;;;7.13;6.40;;;;;;;5.28;100.00;97082.09;5116070;28;20195;-83